コロンボ の空港の天気 - METARとTAF

バンダラナイケ国際空港 ( VCBI / CMB ) - スリランカ コロンボ
飛行場実況気象(Metar)
観測時間07/28 17:40 IST (07/28 12:10 UTC)
風向・風速西南西 5m/s
視程10km以上
天気現象
全天の4割程度の雲 雲底高度 550m
気温29℃
湿度74%
気圧1009hPa
METARVCBI 281210Z 24009KT 9999 SCT018 29/24 Q1009 NOSIG
過去の天気等 Google飛行場航空写真 Wunderground天気予報

過去48時間のMETAR

飛行場予報(TAF)
発表時間: 7/28 15:10 IST (7/28 09:40 UTC)
予報対象時間: 28日17時 IST ~ 29日23時 IST
風向・風速西南西 5m/s
視程10km以上
全天の4割程度の雲 雲底高度 490m
28日17時 IST ~ 28日21時 IST に 確率 30% で一時的に
TAF VCBI 280940Z 2812/2918 24010KT 9999 SCT016 TX31/2908Z TN27/2900Z
PROB30 TEMPO 2812/2816 2823/2903 7000 -SHRA FEW012 BKN016 FEW020CB